Terminal Aerodrome Forecast
Issued by NWS Charleston, WV

Home | Current Version | Previous Version | Text Only | Print | Product List | Glossary On
Versions: 1 2 3 4 5 6 7 8 9 10 11 12 13 14 15 16 17 18 19 20 21 22 23 24 25 26
000
FTUS41 KRLX 041740
TAFCRW
TAF
KCRW 041740Z 0418/0518 VRB03KT P6SM FEW030 FEW250
     FM050400 00000KT 6SM BR SCT035
     FM050600 00000KT 4SM BR SCT035
     FM050900 00000KT 1SM BR SCT001 SCT045
     FM051300 00000KT 6SM BR BKN200
     FM051400 VRB03KT P6SM SCT045
     FM051700 14004KT P6SM BKN035=

USA.gov is the U.S. government's official web portal to all federal, state and local government web resources and services.